createdAt,value
2019-04-22T00:01:32.603Z,11.51
2019-04-22T00:04:07.013Z,11.50
2019-04-22T00:06:50.292Z,11.51
2019-04-22T00:09:24.174Z,11.33
2019-04-22T00:12:01.867Z,9.31
2019-04-22T00:14:24.534Z,7.36
2019-04-22T00:16:58.601Z,8.57
2019-04-22T00:19:33.876Z,8.57
2019-04-22T00:22:02.826Z,9.46
2019-04-22T00:24:23.993Z,8.87
2019-04-22T00:26:59.581Z,10.12
2019-04-22T00:32:05.265Z,11.23
2019-04-22T00:34:40.878Z,11.44
2019-04-22T00:37:11.294Z,11.45
2019-04-22T00:39:40.899Z,11.34
2019-04-22T00:42:14.951Z,11.43
2019-04-22T00:44:45.207Z,11.35
2019-04-22T00:47:21.836Z,11.34
2019-04-22T00:54:48.968Z,11.19
2019-04-22T00:57:15.385Z,11.06
2019-04-22T00:59:50.960Z,10.98
2019-04-22T01:02:13.113Z,10.98
2019-04-22T01:04:48.888Z,10.89
2019-04-22T01:07:12.876Z,10.72
2019-04-22T01:09:46.423Z,10.46
2019-04-22T01:12:24.185Z,10.55
2019-04-22T01:14:47.768Z,10.62
2019-04-22T01:17:17.538Z,10.52
2019-04-22T01:19:52.607Z,10.46
2019-04-22T01:22:17.594Z,10.52
2019-04-22T01:24:46.719Z,10.49
2019-04-22T01:27:13.010Z,10.51
2019-04-22T01:29:42.335Z,10.41
2019-04-22T01:32:00.294Z,10.10
2019-04-22T01:34:48.820Z,9.90
2019-04-22T01:37:21.705Z,9.57
2019-04-22T01:39:59.014Z,9.42
2019-04-22T01:42:30.876Z,9.08
2019-04-22T01:44:53.357Z,9.59
2019-04-22T01:47:33.796Z,9.67
2019-04-22T01:50:03.903Z,9.78
2019-04-22T01:52:20.250Z,9.78
2019-04-22T01:54:55.221Z,9.70
2019-04-22T01:57:23.572Z,9.65
2019-04-22T01:59:53.489Z,9.55
2019-04-22T02:02:31.073Z,9.82
2019-04-22T02:05:01.255Z,9.81
2019-04-22T02:07:32.360Z,10.02
2019-04-22T02:10:04.017Z,10.01
2019-04-22T02:12:33.725Z,10.01
2019-04-22T02:14:58.103Z,10.11
2019-04-22T02:20:07.457Z,10.08
2019-04-22T02:22:50.823Z,10.31
2019-04-22T02:25:13.492Z,10.50
2019-04-22T02:27:43.190Z,10.37
2019-04-22T02:30:05.458Z,10.47
2019-04-22T02:32:49.146Z,10.46
2019-04-22T02:35:11.084Z,10.49
2019-04-22T02:37:35.331Z,10.34
2019-04-22T02:40:38.058Z,10.32
2019-04-22T02:42:35.136Z,10.18
2019-04-22T02:45:07.288Z,10.25
2019-04-22T02:47:36.469Z,10.18
2019-04-22T02:52:43.669Z,9.63
2019-04-22T02:55:20.955Z,9.56
2019-04-22T02:57:39.906Z,9.64
2019-04-22T03:02:50.588Z,9.60
2019-04-22T03:05:19.406Z,9.31
2019-04-22T03:07:50.664Z,9.42
2019-04-22T03:10:38.565Z,8.99
2019-04-22T03:15:17.241Z,8.31
2019-04-22T03:17:43.738Z,8.56
2019-04-22T03:20:09.216Z,8.60
2019-04-22T03:22:47.011Z,8.78
2019-04-22T03:27:42.737Z,8.36
2019-04-22T03:30:41.678Z,8.49
2019-04-22T03:47:53.754Z,8.81
2019-04-22T03:52:56.138Z,9.07
2019-04-22T03:57:50.005Z,9.42
2019-04-22T04:00:32.585Z,9.58
2019-04-22T04:02:56.030Z,9.74
2019-04-22T04:05:33.997Z,9.85
2019-04-22T04:07:57.783Z,9.73
2019-04-22T04:10:30.132Z,9.47
2019-04-22T04:15:32.790Z,7.68
2019-04-22T04:17:51.908Z,8.14
2019-04-22T04:20:37.291Z,8.23
2019-04-22T04:22:59.254Z,8.49
2019-04-22T04:25:32.112Z,8.58
2019-04-22T04:30:30.300Z,8.31
2019-04-22T04:37:55.733Z,7.53
2019-04-22T04:40:28.904Z,7.36
2019-04-22T04:42:56.638Z,6.85
2019-04-22T04:47:55.306Z,6.94
2019-04-22T04:58:09.041Z,7.64
2019-04-22T05:07:56.046Z,8.42
2019-04-22T05:10:53.707Z,7.70
2019-04-22T05:12:57.189Z,7.76
2019-04-22T05:15:27.337Z,7.93
2019-04-22T05:17:58.086Z,7.79
2019-04-22T05:20:33.862Z,7.88
2019-04-22T05:22:50.951Z,8.13
2019-04-22T05:25:25.458Z,8.08
2019-04-22T05:28:08.747Z,7.65
2019-04-22T05:35:26.578Z,8.36
2019-04-22T05:37:58.097Z,8.48
2019-04-22T05:40:24.435Z,8.88
2019-04-22T05:42:56.584Z,9.01
2019-04-22T05:50:36.759Z,9.25
2019-04-22T05:52:57.321Z,8.99
2019-04-22T05:55:30.524Z,9.58
2019-04-22T05:57:57.803Z,9.58
2019-04-22T06:05:32.921Z,8.91
2019-04-22T06:08:02.342Z,9.74
2019-04-22T06:13:00.873Z,9.98
2019-04-22T06:15:36.400Z,9.90
2019-04-22T06:18:20.901Z,9.96
2019-04-22T06:20:38.637Z,10.16
2019-04-22T06:23:12.134Z,11.14
2019-04-22T06:26:14.809Z,10.66
2019-04-22T06:28:16.113Z,10.72
2019-04-22T06:30:43.501Z,10.54
2019-04-22T06:35:44.325Z,9.98
2019-04-22T06:38:28.605Z,9.59
2019-04-22T06:40:46.547Z,9.73
2019-04-22T06:43:17.625Z,9.62
2019-04-22T06:45:40.182Z,9.80
2019-04-22T06:50:41.655Z,10.54
2019-04-22T06:53:09.283Z,9.69
2019-04-22T06:55:47.019Z,10.81
2019-04-22T06:58:16.412Z,10.48
2019-04-22T07:05:48.910Z,10.19
2019-04-22T07:08:39.335Z,9.94
2019-04-22T07:10:50.324Z,10.14
2019-04-22T07:13:18.651Z,10.30
2019-04-22T07:20:53.730Z,10.14
2019-04-22T07:23:25.776Z,11.09
2019-04-22T07:25:45.478Z,10.05
2019-04-22T07:28:18.506Z,10.03
2019-04-22T07:30:44.723Z,9.91
2019-04-22T07:33:22.908Z,10.57
2019-04-22T07:38:25.723Z,10.21
2019-04-22T07:40:50.577Z,10.70
2019-04-22T07:43:32.503Z,11.44
2019-04-22T07:45:48.940Z,10.02
2019-04-22T07:48:35.690Z,10.30
2019-04-22T07:50:55.785Z,10.28
2019-04-22T07:53:19.591Z,11.16
2019-04-22T07:55:54.958Z,11.69
2019-04-22T07:58:27.399Z,11.81
2019-04-22T08:00:57.670Z,12.09
2019-04-22T08:03:30.839Z,11.61
2019-04-22T08:06:05.360Z,11.69
2019-04-22T08:08:29.252Z,11.60
2019-04-22T08:10:57.913Z,12.12
2019-04-22T08:13:31.302Z,12.36
2019-04-22T08:15:58.214Z,12.27
2019-04-22T08:18:28.996Z,13.35
2019-04-22T08:20:58.686Z,13.82
2019-04-22T08:23:33.596Z,13.08
2019-04-22T08:25:55.812Z,12.42
2019-04-22T08:28:34.474Z,13.28
2019-04-22T08:31:04.755Z,13.48
2019-04-22T08:38:35.432Z,12.96
2019-04-22T08:43:57.335Z,13.45
2019-04-22T08:46:28.538Z,14.85
2019-04-22T08:53:59.767Z,13.43
2019-04-22T08:56:31.013Z,15.11
2019-04-22T08:58:57.001Z,15.07
2019-04-22T09:01:23.879Z,14.26
2019-04-22T09:03:52.475Z,13.33
2019-04-22T09:06:29.905Z,12.55
2019-04-22T09:08:55.320Z,12.08
2019-04-22T09:11:27.177Z,12.48
2019-04-22T09:13:56.096Z,11.46
2019-04-22T09:16:27.913Z,11.76
2019-04-22T09:18:56.165Z,11.93
2019-04-22T09:21:38.887Z,13.13
2019-04-22T09:23:58.684Z,12.08
2019-04-22T09:26:30.727Z,12.47
2019-04-22T09:29:02.839Z,13.57
2019-04-22T09:31:24.232Z,13.55
2019-04-22T09:33:53.362Z,12.67
2019-04-22T09:36:29.573Z,13.12
2019-04-22T09:38:52.819Z,15.18
2019-04-22T09:41:27.760Z,15.81
2019-04-22T09:43:56.621Z,14.85
2019-04-22T09:46:33.091Z,14.50
2019-04-22T09:51:27.339Z,16.26
2019-04-22T09:56:32.183Z,14.84
2019-04-22T09:58:58.891Z,14.09
2019-04-22T10:01:42.196Z,14.27
2019-04-22T10:04:03.443Z,15.48
2019-04-22T10:11:34.054Z,15.01
2019-04-22T10:19:04.708Z,15.11
2019-04-22T10:21:40.279Z,14.69
2019-04-22T10:24:03.293Z,15.45
2019-04-22T10:29:05.933Z,14.62
2019-04-22T10:31:39.540Z,14.85
2019-04-22T10:33:53.710Z,15.26
2019-04-22T10:36:09.853Z,15.62
2019-04-22T10:38:38.372Z,15.32
2019-04-22T10:41:08.276Z,15.24
2019-04-22T10:43:37.148Z,14.86
2019-04-22T10:46:06.217Z,15.56
2019-04-22T10:48:34.937Z,15.65
2019-04-22T10:51:04.578Z,15.67
2019-04-22T10:53:33.495Z,16.29
2019-04-22T10:56:03.226Z,16.29
2019-04-22T10:58:32.908Z,16.85
2019-04-22T11:01:01.585Z,16.28
2019-04-22T11:03:31.138Z,15.01
2019-04-22T11:06:01.263Z,14.29
2019-04-22T11:08:40.254Z,14.70
2019-04-22T11:11:16.168Z,14.89
2019-04-22T11:13:33.624Z,15.21
2019-04-22T11:16:03.485Z,15.26
2019-04-22T11:18:33.637Z,15.48
2019-04-22T11:21:02.484Z,15.07
2019-04-22T11:23:32.277Z,15.51
2019-04-22T11:26:01.817Z,15.63
2019-04-22T11:28:31.847Z,15.83
2019-04-22T11:31:00.839Z,15.55
2019-04-22T11:33:30.347Z,14.92
2019-04-22T11:35:59.966Z,14.92
2019-04-22T11:38:28.821Z,15.78
2019-04-22T11:40:58.170Z,16.65
2019-04-22T11:43:30.466Z,18.65
2019-04-22T11:45:59.574Z,18.69
2019-04-22T11:48:29.379Z,18.32
2019-04-22T11:50:57.927Z,18.01
2019-04-22T11:53:27.310Z,18.02
2019-04-22T11:55:55.966Z,18.65
2019-04-22T11:58:24.688Z,18.93
2019-04-22T12:00:55.170Z,19.43
2019-04-22T12:03:25.151Z,18.28
2019-04-22T12:05:55.576Z,17.68
2019-04-22T12:08:25.032Z,17.45
2019-04-22T12:10:58.153Z,17.17
2019-04-22T12:13:24.215Z,18.35
2019-04-22T12:15:53.413Z,19.16
2019-04-22T12:18:22.898Z,18.01
2019-04-22T12:20:52.982Z,17.34
2019-04-22T12:23:22.918Z,17.30
2019-04-22T12:25:58.043Z,17.87
2019-04-22T12:28:23.235Z,18.49
2019-04-22T12:30:53.337Z,17.30
2019-04-22T12:33:23.512Z,16.86
2019-04-22T12:35:52.806Z,17.80
2019-04-22T12:38:22.098Z,17.74
2019-04-22T12:40:56.423Z,18.13
2019-04-22T12:43:23.711Z,17.87
2019-04-22T12:45:52.114Z,18.63
2019-04-22T12:48:21.349Z,18.55
2019-04-22T12:50:52.238Z,18.39
2019-04-22T12:53:22.574Z,18.64
2019-04-22T12:55:50.576Z,19.03
2019-04-22T12:58:20.674Z,19.30
2019-04-22T13:00:52.776Z,18.26
2019-04-22T13:03:22.318Z,17.67
2019-04-22T13:05:51.468Z,17.76
2019-04-22T13:08:20.150Z,17.29
2019-04-22T13:10:55.453Z,17.16
2019-04-22T13:13:19.009Z,18.23
2019-04-22T13:15:48.947Z,18.14
2019-04-22T13:18:27.691Z,17.98
2019-04-22T13:20:48.628Z,18.22
2019-04-22T13:23:18.024Z,17.32
2019-04-22T13:25:47.232Z,17.83
2019-04-22T13:28:15.819Z,17.64
2019-04-22T13:30:44.450Z,17.65
2019-04-22T13:33:12.927Z,17.27
2019-04-22T13:35:41.666Z,17.44
2019-04-22T13:38:11.082Z,17.68
2019-04-22T13:40:55.857Z,17.07
2019-04-22T13:43:13.228Z,16.69
2019-04-22T13:45:41.926Z,16.72
2019-04-22T13:48:28.804Z,16.98
2019-04-22T13:51:13.237Z,16.63
2019-04-22T13:53:46.166Z,17.01
2019-04-22T13:56:03.543Z,17.22
2019-04-22T13:58:29.076Z,17.25
2019-04-22T14:00:44.612Z,16.74
2019-04-22T14:03:24.623Z,17.50
2019-04-22T14:05:55.190Z,18.07
2019-04-22T14:08:24.950Z,17.55
2019-04-22T14:10:54.416Z,17.68
2019-04-22T14:13:23.866Z,18.49
2019-04-22T14:15:52.949Z,17.16
2019-04-22T14:18:23.119Z,16.49
2019-04-22T14:20:51.781Z,16.72
2019-04-22T14:23:20.529Z,16.82
2019-04-22T14:25:50.824Z,17.33
2019-04-22T14:28:22.906Z,16.82
2019-04-22T14:30:50.614Z,17.09
2019-04-22T14:33:20.255Z,17.13
2019-04-22T14:35:49.970Z,17.35
2019-04-22T14:38:18.507Z,17.71
2019-04-22T14:40:48.250Z,17.47
2019-04-22T14:43:44.879Z,16.99
2019-04-22T14:46:15.460Z,16.42
2019-04-22T14:48:46.023Z,17.27
2019-04-22T14:51:08.435Z,16.55
2019-04-22T14:53:43.389Z,16.74
2019-04-22T14:55:50.484Z,16.44
2019-04-22T14:58:19.250Z,16.70
2019-04-22T15:00:51.941Z,16.90
2019-04-22T15:03:21.752Z,17.18
2019-04-22T15:05:50.523Z,16.87
2019-04-22T15:08:19.224Z,16.57
2019-04-22T15:10:49.998Z,15.78
2019-04-22T15:13:18.511Z,15.55
2019-04-22T15:16:03.100Z,15.87
2019-04-22T15:18:35.779Z,15.92
2019-04-22T15:21:12.497Z,16.02
2019-04-22T15:23:42.602Z,16.11
2019-04-22T15:26:12.486Z,15.94
2019-04-22T15:28:41.773Z,15.91
2019-04-22T15:31:11.180Z,15.82
2019-04-22T15:33:39.745Z,16.00
2019-04-22T15:36:10.135Z,16.14
2019-04-22T15:38:38.675Z,15.79
2019-04-22T15:41:07.279Z,15.56
2019-04-22T15:43:37.176Z,15.73
2019-04-22T15:46:05.858Z,15.98
2019-04-22T15:48:35.974Z,15.25
2019-04-22T15:51:06.688Z,15.43
2019-04-22T15:53:35.791Z,15.57
2019-04-22T15:56:05.092Z,15.70
2019-04-22T15:58:33.644Z,15.45
2019-04-22T16:01:10.756Z,15.50
2019-04-22T16:03:32.477Z,15.16
2019-04-22T16:06:02.140Z,14.73
2019-04-22T16:08:33.570Z,14.72
2019-04-22T16:11:02.024Z,14.58
2019-04-22T16:13:33.941Z,14.56
2019-04-22T16:16:00.861Z,14.90
2019-04-22T16:18:30.598Z,14.59
2019-04-22T16:21:00.230Z,14.83
2019-04-22T16:23:36.599Z,14.72
2019-04-22T16:26:07.575Z,14.66
2019-04-22T16:28:37.630Z,14.46
2019-04-22T16:31:07.205Z,14.64
2019-04-22T16:33:39.713Z,14.51
2019-04-22T16:36:07.127Z,14.65
2019-04-22T16:38:37.318Z,14.48
2019-04-22T16:41:06.620Z,14.52
2019-04-22T16:43:36.489Z,14.35
2019-04-22T16:46:05.806Z,14.38
2019-04-22T16:48:35.750Z,14.68
2019-04-22T16:51:06.285Z,14.89
2019-04-22T16:53:35.143Z,14.45
2019-04-22T16:56:05.056Z,14.38
2019-04-22T16:58:34.726Z,14.53
2019-04-22T17:01:05.166Z,14.51
2019-04-22T17:03:36.558Z,14.24
2019-04-22T17:06:10.016Z,14.26
2019-04-22T17:08:39.105Z,14.18
2019-04-22T17:11:07.657Z,14.36
2019-04-22T17:13:38.065Z,14.13
2019-04-22T17:16:07.134Z,13.98
2019-04-22T17:18:37.095Z,14.02
2019-04-22T17:21:08.459Z,14.16
2019-04-22T17:23:37.903Z,13.90
2019-04-22T17:26:08.280Z,13.92
2019-04-22T17:28:37.453Z,13.82
2019-04-22T17:31:06.696Z,13.88
2019-04-22T17:33:35.336Z,13.83
2019-04-22T17:36:05.392Z,13.66
2019-04-22T17:38:45.505Z,13.74
2019-04-22T17:41:18.711Z,13.66
2019-04-22T17:43:59.069Z,13.52
2019-04-22T17:46:27.271Z,13.48
2019-04-22T17:49:04.296Z,13.57
2019-04-22T17:51:53.507Z,13.44
2019-04-22T17:54:19.181Z,13.48
2019-04-22T17:56:40.018Z,13.55
2019-04-22T17:59:03.940Z,13.42
2019-04-22T18:01:35.587Z,13.42
2019-04-22T18:03:51.583Z,13.34
2019-04-22T18:06:45.221Z,13.27
2019-04-22T18:09:05.094Z,13.26
2019-04-22T18:11:48.303Z,13.46
2019-04-22T18:14:26.116Z,13.63
2019-04-22T18:16:37.235Z,13.29
2019-04-22T18:19:10.087Z,13.15
2019-04-22T18:21:35.051Z,13.46
2019-04-22T18:23:55.470Z,13.46
2019-04-22T18:26:35.744Z,13.31
2019-04-22T18:29:07.513Z,13.16
2019-04-22T18:31:32.979Z,13.34
2019-04-22T18:34:04.751Z,13.04
2019-04-22T18:36:37.632Z,13.20
2019-04-22T18:39:21.305Z,13.21
2019-04-22T18:41:40.597Z,13.27
2019-04-22T18:44:17.982Z,13.11
2019-04-22T18:46:42.615Z,12.98
2019-04-22T18:49:12.387Z,13.02
2019-04-22T18:51:46.242Z,12.95
2019-04-22T18:54:28.851Z,13.18
2019-04-22T18:56:50.774Z,13.35
2019-04-22T18:59:12.371Z,13.07
2019-04-22T19:01:33.726Z,12.74
2019-04-22T19:04:12.630Z,12.68
2019-04-22T19:06:56.488Z,12.89
2019-04-22T19:09:31.656Z,12.64
2019-04-22T19:12:09.058Z,12.66
2019-04-22T19:14:24.285Z,12.79
2019-04-22T19:17:07.909Z,12.79
2019-04-22T19:19:43.254Z,12.94
2019-04-22T19:21:57.732Z,12.42
2019-04-22T19:24:22.837Z,12.76
2019-04-22T19:26:58.755Z,12.80
2019-04-22T19:29:31.683Z,12.59
2019-04-22T19:31:57.056Z,12.65
2019-04-22T19:34:25.083Z,12.87
2019-04-22T19:36:56.246Z,12.63
2019-04-22T19:39:25.047Z,12.46
2019-04-22T19:42:01.896Z,12.47
2019-04-22T19:44:30.863Z,12.60
2019-04-22T19:47:21.190Z,12.60
2019-04-22T19:49:38.387Z,12.55
2019-04-22T19:54:32.350Z,12.50
2019-04-22T19:56:57.422Z,12.50
2019-04-22T19:59:32.289Z,12.46
2019-04-22T20:02:22.210Z,12.25
2019-04-22T20:05:11.027Z,12.13
2019-04-22T20:07:38.536Z,12.25
2019-04-22T20:10:17.256Z,12.33
2019-04-22T20:12:46.747Z,12.30
2019-04-22T20:15:09.980Z,12.17
2019-04-22T20:17:57.335Z,12.38
2019-04-22T20:20:17.880Z,12.30
2019-04-22T20:22:44.479Z,12.52
2019-04-22T20:25:06.543Z,12.15
2019-04-22T20:27:47.539Z,12.18
2019-04-22T20:30:17.368Z,12.26
2019-04-22T20:32:41.373Z,12.17
2019-04-22T20:35:24.512Z,12.17
2019-04-22T20:37:54.969Z,12.26
2019-04-22T20:40:18.043Z,12.19
2019-04-22T20:42:55.281Z,12.09
2019-04-22T20:45:29.175Z,11.65
2019-04-22T20:47:42.603Z,11.84
2019-04-22T20:50:21.802Z,11.90
2019-04-22T20:52:55.575Z,12.05
2019-04-22T20:55:17.659Z,12.14
2019-04-22T20:57:53.581Z,11.55
2019-04-22T21:00:15.180Z,11.55
2019-04-22T21:02:45.490Z,11.52
2019-04-22T21:05:18.008Z,11.81
2019-04-22T21:07:47.947Z,11.93
2019-04-22T21:10:19.875Z,11.42
2019-04-22T21:12:41.780Z,11.53
2019-04-22T21:15:26.423Z,11.85
2019-04-22T21:17:54.444Z,11.52
2019-04-22T21:20:28.651Z,11.22
2019-04-22T21:22:51.147Z,11.26
2019-04-22T21:25:16.788Z,11.41
2019-04-22T21:27:56.535Z,11.87
2019-04-22T21:30:26.472Z,11.42
2019-04-22T21:32:54.845Z,11.42
2019-04-22T21:35:40.426Z,11.17
2019-04-22T21:38:02.654Z,11.04
2019-04-22T21:40:30.487Z,10.88
2019-04-22T21:42:59.742Z,11.15
2019-04-22T21:45:23.783Z,10.69
2019-04-22T21:48:13.773Z,11.10
2019-04-22T21:50:41.566Z,11.04
2019-04-22T21:53:12.796Z,10.99
2019-04-22T21:55:37.395Z,10.83
2019-04-22T21:58:27.922Z,11.02
2019-04-22T22:00:53.136Z,10.50
2019-04-22T22:03:18.949Z,10.43
2019-04-22T22:05:39.775Z,10.57
2019-04-22T22:08:22.910Z,10.64
2019-04-22T22:10:45.279Z,10.50
2019-04-22T22:13:16.941Z,10.24
2019-04-22T22:15:49.283Z,10.48
2019-04-22T22:18:12.926Z,10.37
2019-04-22T22:20:59.827Z,10.23
2019-04-22T22:23:26.946Z,10.41
2019-04-22T22:25:43.753Z,10.47
2019-04-22T22:28:33.181Z,10.36
2019-04-22T22:31:08.862Z,10.15
2019-04-22T22:33:16.734Z,10.39
2019-04-22T22:35:45.732Z,10.70
2019-04-22T22:38:19.166Z,10.12
2019-04-22T22:40:32.832Z,10.20
2019-04-22T22:43:05.412Z,9.83
2019-04-22T22:45:37.004Z,9.91
2019-04-22T22:48:39.792Z,9.89
2019-04-22T22:50:48.923Z,9.82
2019-04-22T22:53:29.089Z,9.71
2019-04-22T22:55:53.179Z,9.84
2019-04-22T22:58:24.567Z,9.68
2019-04-22T23:00:44.076Z,9.90
2019-04-22T23:03:41.758Z,9.65
2019-04-22T23:06:00.533Z,9.63
2019-04-22T23:08:25.755Z,9.62
2019-04-22T23:11:00.792Z,9.62
2019-04-22T23:13:28.187Z,9.46
2019-04-22T23:15:46.658Z,9.45
2019-04-22T23:18:03.795Z,9.44
2019-04-22T23:20:37.590Z,9.52
2019-04-22T23:23:22.444Z,9.26
2019-04-22T23:26:03.835Z,9.34
2019-04-22T23:28:28.071Z,9.23
2019-04-22T23:31:09.593Z,9.18
2019-04-22T23:33:47.629Z,9.25
2019-04-22T23:36:19.161Z,9.06
2019-04-22T23:39:02.359Z,9.02
2019-04-22T23:46:41.512Z,8.81
2019-04-22T23:49:11.686Z,8.89
2019-04-22T23:51:55.491Z,8.88
2019-04-22T23:54:24.567Z,9.08
2019-04-22T23:56:49.435Z,8.92
